createdAt,value
2022-12-24T00:01:53.029Z,5.35
2022-12-24T00:04:20.434Z,3.42
2022-12-24T00:06:47.919Z,4.32
2022-12-24T00:09:16.152Z,4.18
2022-12-24T00:11:43.518Z,3.88
2022-12-24T00:14:10.913Z,3.40
2022-12-24T00:16:39.656Z,3.05
2022-12-24T00:19:07.049Z,3.95
2022-12-24T00:21:34.427Z,4.75
2022-12-24T00:24:03.853Z,4.32
2022-12-24T00:26:31.210Z,3.17
2022-12-24T00:28:58.791Z,4.53
2022-12-24T00:31:26.333Z,3.28
2022-12-24T00:33:55.107Z,3.30
2022-12-24T00:36:22.483Z,3.72
2022-12-24T00:38:49.907Z,3.53
2022-12-24T00:41:28.757Z,3.58
2022-12-24T00:43:56.771Z,3.17
2022-12-24T00:46:24.311Z,3.42
2022-12-24T00:51:12.804Z,3.88
2022-12-24T00:53:40.249Z,3.25
2022-12-24T00:56:08.570Z,4.70
2022-12-24T00:58:36.059Z,2.85
2022-12-24T01:01:03.527Z,4.45
2022-12-24T01:03:36.985Z,3.65
2022-12-24T01:06:03.806Z,3.92
2022-12-24T01:08:33.335Z,3.92
2022-12-24T01:11:00.699Z,2.90
2022-12-24T01:13:28.113Z,3.95
2022-12-24T01:15:55.607Z,4.78
2022-12-24T01:18:23.180Z,2.78
2022-12-24T01:20:57.390Z,3.28
2022-12-24T01:23:24.997Z,2.50
2022-12-24T01:25:53.701Z,3.17
2022-12-24T01:28:21.102Z,3.67
2022-12-24T01:30:48.599Z,3.40
2022-12-24T01:33:16.013Z,2.75
2022-12-24T01:35:43.609Z,3.90
2022-12-24T01:38:11.767Z,3.13
2022-12-24T01:40:56.896Z,3.70
2022-12-24T01:43:28.344Z,3.65
2022-12-24T01:45:56.244Z,3.60
2022-12-24T01:48:34.146Z,3.22
2022-12-24T01:51:03.266Z,3.65
2022-12-24T01:53:31.003Z,2.67
2022-12-24T01:55:58.380Z,2.80
2022-12-24T01:58:27.065Z,2.65
2022-12-24T02:00:54.427Z,2.58
2022-12-24T02:03:21.899Z,3.38
2022-12-24T02:05:50.314Z,1.95
2022-12-24T02:08:17.784Z,3.13
2022-12-24T02:10:45.386Z,3.28
2022-12-24T02:13:13.232Z,3.30
2022-12-24T02:15:50.644Z,3.22
2022-12-24T02:18:21.867Z,3.72
2022-12-24T02:21:00.988Z,3.20
2022-12-24T02:23:39.600Z,3.10
2022-12-24T02:26:16.339Z,3.25
2022-12-24T02:28:52.323Z,4.13
2022-12-24T02:31:21.982Z,4.13
2022-12-24T02:33:50.726Z,3.28
2022-12-24T02:36:21.262Z,3.28
2022-12-24T02:38:50.134Z,3.60
2022-12-24T02:41:18.662Z,4.97
2022-12-24T02:43:46.774Z,3.80
2022-12-24T02:46:15.198Z,3.50
2022-12-24T02:48:44.419Z,4.72
2022-12-24T02:51:12.022Z,3.90
2022-12-24T02:53:39.419Z,4.03
2022-12-24T02:56:23.107Z,3.72
2022-12-24T02:58:59.836Z,4.78
2022-12-24T03:01:31.247Z,5.20
2022-12-24T03:04:07.393Z,5.13
2022-12-24T03:06:39.720Z,3.95
2022-12-24T03:09:09.653Z,4.45
2022-12-24T03:11:37.027Z,5.13
2022-12-24T03:14:04.452Z,6.43
2022-12-24T03:16:31.865Z,5.88
2022-12-24T03:18:59.274Z,4.72
2022-12-24T03:21:29.302Z,4.78
2022-12-24T03:23:56.830Z,4.80
2022-12-24T03:26:24.241Z,5.88
2022-12-24T03:28:51.631Z,6.18
2022-12-24T03:31:19.486Z,4.57
2022-12-24T03:33:47.254Z,7.00
2022-12-24T03:36:14.661Z,7.95
2022-12-24T03:38:43.373Z,5.13
2022-12-24T03:41:11.291Z,8.52
2022-12-24T03:43:38.663Z,5.03
2022-12-24T03:46:07.090Z,5.95
2022-12-24T03:48:34.853Z,8.82
2022-12-24T03:51:02.256Z,7.40
2022-12-24T03:53:29.631Z,6.88
2022-12-24T03:55:58.325Z,6.32
2022-12-24T03:58:25.681Z,6.72
2022-12-24T04:00:53.624Z,9.63
2022-12-24T04:03:21.326Z,6.13
2022-12-24T04:05:48.811Z,7.32
2022-12-24T04:08:16.175Z,8.10
2022-12-24T04:10:43.588Z,6.72
2022-12-24T04:13:12.253Z,8.10
2022-12-24T04:15:39.615Z,7.00
2022-12-24T04:18:06.995Z,7.82
2022-12-24T04:20:34.389Z,8.57
2022-12-24T04:23:01.768Z,7.20
2022-12-24T04:25:29.141Z,5.70
2022-12-24T04:27:56.510Z,8.50
2022-12-24T04:30:25.226Z,9.13
2022-12-24T04:32:52.591Z,6.78
2022-12-24T04:35:19.983Z,8.93
2022-12-24T04:37:47.353Z,8.13
2022-12-24T04:40:14.964Z,8.02
2022-12-24T04:42:42.357Z,7.70
2022-12-24T04:45:10.641Z,10.75
2022-12-24T04:47:39.320Z,8.90
2022-12-24T04:50:07.922Z,10.60
2022-12-24T04:52:35.336Z,11.90
2022-12-24T04:55:02.730Z,11.98
2022-12-24T04:57:32.360Z,10.30
2022-12-24T04:59:59.733Z,6.72
2022-12-24T05:02:27.312Z,8.55
2022-12-24T05:04:56.091Z,8.68
2022-12-24T05:07:23.473Z,9.15
2022-12-24T05:09:50.864Z,11.95
2022-12-24T05:12:18.235Z,8.07
2022-12-24T05:14:45.601Z,12.82
2022-12-24T05:17:13.081Z,11.18
2022-12-24T05:19:40.504Z,8.20
2022-12-24T05:22:27.176Z,12.43
2022-12-24T05:25:12.431Z,11.65
2022-12-24T05:27:39.817Z,10.02
2022-12-24T05:30:08.543Z,11.13
2022-12-24T05:32:36.069Z,10.60
2022-12-24T05:35:03.456Z,11.75
2022-12-24T05:37:32.157Z,10.85
2022-12-24T05:39:59.545Z,11.32
2022-12-24T05:42:26.928Z,9.48
2022-12-24T05:44:54.313Z,11.68
2022-12-24T05:47:21.715Z,13.50
2022-12-24T05:49:49.099Z,11.60
2022-12-24T05:52:16.587Z,10.43
2022-12-24T05:54:45.280Z,10.75
2022-12-24T05:57:13.230Z,12.13
2022-12-24T05:59:40.611Z,11.25
2022-12-24T06:02:08.019Z,13.05
2022-12-24T06:04:35.476Z,11.88
2022-12-24T06:07:02.880Z,10.00
2022-12-24T06:09:30.268Z,11.85
2022-12-24T06:11:58.997Z,10.95
2022-12-24T06:14:26.387Z,10.85
2022-12-24T06:16:53.802Z,10.52
2022-12-24T06:19:21.222Z,10.93
2022-12-24T06:21:48.597Z,10.90
2022-12-24T06:24:16.266Z,11.50
2022-12-24T06:26:43.640Z,11.05
2022-12-24T06:29:12.335Z,12.20
2022-12-24T06:31:39.825Z,10.38
2022-12-24T06:34:07.268Z,10.98
2022-12-24T06:36:34.668Z,9.25
2022-12-24T06:39:02.067Z,15.60
2022-12-24T06:41:29.497Z,13.25
2022-12-24T06:43:56.870Z,14.38
2022-12-24T06:46:25.693Z,8.02
2022-12-24T06:48:54.964Z,11.10
2022-12-24T06:51:22.420Z,12.90
2022-12-24T06:53:50.465Z,11.05
2022-12-24T06:56:18.034Z,11.90
2022-12-24T06:58:45.466Z,11.20
2022-12-24T07:01:14.390Z,13.32
2022-12-24T07:03:43.488Z,11.85
2022-12-24T07:06:12.371Z,11.98
2022-12-24T07:08:39.886Z,9.98
2022-12-24T07:11:07.294Z,10.05
2022-12-24T07:13:34.752Z,13.75
2022-12-24T07:16:02.979Z,11.10
2022-12-24T07:18:30.515Z,12.50
2022-12-24T07:20:59.326Z,14.85
2022-12-24T07:23:26.800Z,12.45
2022-12-24T07:25:54.215Z,12.27
2022-12-24T07:28:27.640Z,13.82
2022-12-24T07:30:55.717Z,11.00
2022-12-24T07:33:23.178Z,10.50
2022-12-24T07:35:55.717Z,14.07
2022-12-24T07:38:24.685Z,12.25
2022-12-24T07:40:52.150Z,12.05
2022-12-24T07:43:19.539Z,10.02
2022-12-24T07:45:47.048Z,11.15
2022-12-24T07:48:14.498Z,11.77
2022-12-24T07:50:41.878Z,13.18
2022-12-24T07:53:09.296Z,13.57
2022-12-24T07:55:38.034Z,10.88
2022-12-24T07:58:05.416Z,15.73
2022-12-24T08:00:32.806Z,10.98
2022-12-24T08:03:01.005Z,11.95
2022-12-24T08:05:28.576Z,15.10
2022-12-24T08:07:56.187Z,14.85
2022-12-24T08:10:23.605Z,10.75
2022-12-24T08:12:52.316Z,12.43
2022-12-24T08:15:19.804Z,12.05
2022-12-24T08:17:47.255Z,12.82
2022-12-24T08:20:16.040Z,11.55
2022-12-24T08:22:43.454Z,13.73
2022-12-24T08:25:11.237Z,10.88
2022-12-24T08:27:38.661Z,9.13
2022-12-24T08:30:08.661Z,12.43
2022-12-24T08:32:36.116Z,10.82
2022-12-24T08:35:03.506Z,13.00
2022-12-24T08:37:30.976Z,11.57
2022-12-24T08:39:58.431Z,10.90
2022-12-24T08:42:25.902Z,13.55
2022-12-24T08:44:53.324Z,10.32
2022-12-24T08:47:22.049Z,10.32
2022-12-24T08:49:49.444Z,12.27
2022-12-24T08:52:16.864Z,11.98
2022-12-24T08:54:44.294Z,9.35
2022-12-24T08:57:11.721Z,10.68
2022-12-24T08:59:39.124Z,11.85
2022-12-24T09:02:06.703Z,10.85
2022-12-24T09:04:35.494Z,8.48
2022-12-24T09:07:02.885Z,8.63
2022-12-24T09:09:36.039Z,13.60
2022-12-24T09:12:05.498Z,10.95
2022-12-24T09:14:32.879Z,10.90
2022-12-24T09:17:00.561Z,10.15
2022-12-24T09:19:28.009Z,10.93
2022-12-24T09:21:56.729Z,8.90
2022-12-24T09:24:24.124Z,9.27
2022-12-24T09:26:57.536Z,10.57
2022-12-24T09:29:25.453Z,7.38
2022-12-24T09:31:55.023Z,9.27
2022-12-24T09:34:28.260Z,13.30
2022-12-24T09:37:00.548Z,9.65
2022-12-24T09:39:27.971Z,7.43
2022-12-24T09:41:58.760Z,9.18
2022-12-24T09:44:34.647Z,9.68
2022-12-24T09:47:08.191Z,11.13
2022-12-24T09:49:39.326Z,7.80
2022-12-24T09:52:10.159Z,8.15
2022-12-24T09:54:38.637Z,9.23
2022-12-24T09:57:08.480Z,8.65
2022-12-24T09:59:40.614Z,8.60
2022-12-24T10:02:10.993Z,8.30
2022-12-24T10:04:38.590Z,7.68
2022-12-24T10:07:09.312Z,8.00
2022-12-24T10:09:39.907Z,7.80
2022-12-24T10:12:10.015Z,6.78
2022-12-24T10:17:21.157Z,7.80
2022-12-24T10:19:51.266Z,8.10
2022-12-24T10:27:19.697Z,7.13
2022-12-24T10:29:48.556Z,6.15
2022-12-24T10:32:20.114Z,8.25
2022-12-24T10:34:52.457Z,6.72
2022-12-24T10:37:23.640Z,9.50
2022-12-24T10:39:51.101Z,6.93
2022-12-24T10:42:18.651Z,5.93
2022-12-24T10:44:46.638Z,9.75
2022-12-24T10:47:14.019Z,7.40
2022-12-24T10:49:44.557Z,8.27
2022-12-24T10:52:12.707Z,8.23
2022-12-24T10:55:04.501Z,7.03
2022-12-24T10:57:31.955Z,8.45
2022-12-24T10:59:59.382Z,9.70
2022-12-24T11:02:28.462Z,10.25
2022-12-24T11:04:56.281Z,6.53
2022-12-24T11:07:24.183Z,8.80
2022-12-24T11:09:57.903Z,9.85
2022-12-24T11:12:26.705Z,8.88
2022-12-24T11:15:00.785Z,8.98
2022-12-24T11:17:28.247Z,6.90
2022-12-24T11:19:55.669Z,7.22
2022-12-24T11:22:24.772Z,8.35
2022-12-24T11:24:59.960Z,8.85
2022-12-24T11:27:33.014Z,7.63
2022-12-24T11:30:18.822Z,10.45
2022-12-24T11:32:47.121Z,8.50
2022-12-24T11:35:16.904Z,8.15
2022-12-24T11:37:44.278Z,12.57
2022-12-24T11:40:22.042Z,9.27
2022-12-24T11:42:53.011Z,10.60
2022-12-24T11:45:23.253Z,8.80
2022-12-24T11:47:50.712Z,9.65
2022-12-24T11:50:22.995Z,6.85
2022-12-24T11:52:51.040Z,9.75
2022-12-24T11:55:22.419Z,11.13
2022-12-24T11:57:54.746Z,11.20
2022-12-24T12:00:22.149Z,11.20
2022-12-24T12:02:50.689Z,11.10
2022-12-24T12:05:19.301Z,9.98
2022-12-24T12:07:47.399Z,11.80
2022-12-24T12:10:18.573Z,9.85
2022-12-24T12:12:48.197Z,9.13
2022-12-24T12:15:17.242Z,11.48
2022-12-24T12:17:45.740Z,9.48
2022-12-24T12:20:14.395Z,10.43
2022-12-24T12:22:46.716Z,11.13
2022-12-24T12:25:20.026Z,10.55
2022-12-24T12:27:49.043Z,9.35
2022-12-24T12:30:17.784Z,10.68
2022-12-24T12:32:48.962Z,10.13
2022-12-24T12:35:20.040Z,8.75
2022-12-24T12:37:49.552Z,9.52
2022-12-24T12:40:17.292Z,10.73
2022-12-24T12:42:47.518Z,11.30
2022-12-24T12:45:33.053Z,8.27
2022-12-24T12:48:19.765Z,10.00
2022-12-24T12:50:49.430Z,10.02
2022-12-24T12:53:25.339Z,9.23
2022-12-24T12:55:56.233Z,10.65
2022-12-24T12:58:26.871Z,8.98
2022-12-24T13:00:59.871Z,11.10
2022-12-24T13:03:56.681Z,9.77
2022-12-24T13:06:32.019Z,9.07
2022-12-24T13:09:24.509Z,7.82
2022-12-24T13:12:00.504Z,11.07
2022-12-24T13:14:37.469Z,7.97
2022-12-24T13:17:46.008Z,9.23
2022-12-24T13:20:19.859Z,8.88
2022-12-24T13:22:51.971Z,10.60
2022-12-24T13:25:23.649Z,11.02
2022-12-24T13:27:51.050Z,7.53
2022-12-24T13:30:35.908Z,9.23
2022-12-24T13:33:04.845Z,11.02
2022-12-24T13:35:37.966Z,9.90
2022-12-24T13:38:43.375Z,8.43
2022-12-24T13:41:41.501Z,10.90
2022-12-24T13:44:22.952Z,9.70
2022-12-24T13:46:56.724Z,10.55
2022-12-24T13:49:32.351Z,9.30
2022-12-24T13:52:24.166Z,8.60
2022-12-24T13:55:08.080Z,10.20
2022-12-24T13:57:38.012Z,7.93
2022-12-24T14:00:09.006Z,10.27
2022-12-24T14:02:38.989Z,8.15
2022-12-24T14:07:36.967Z,7.68
2022-12-24T14:10:06.327Z,10.48
2022-12-24T14:12:46.562Z,9.05
2022-12-24T14:17:59.968Z,7.65
2022-12-24T14:20:28.647Z,9.15
2022-12-24T14:22:56.814Z,9.50
2022-12-24T14:25:24.206Z,11.02
2022-12-24T14:27:52.849Z,11.50
2022-12-24T14:30:21.334Z,8.70
2022-12-24T14:32:49.398Z,9.23
2022-12-24T14:35:18.500Z,8.40
2022-12-24T14:37:48.098Z,8.98
2022-12-24T14:40:16.787Z,11.43
2022-12-24T14:42:48.076Z,8.18
2022-12-24T14:45:19.731Z,9.25
2022-12-24T14:47:50.955Z,7.53
2022-12-24T14:50:41.746Z,9.73
2022-12-24T14:53:20.021Z,9.15
2022-12-24T14:55:48.003Z,9.93
2022-12-24T14:58:26.931Z,9.68
2022-12-24T15:00:56.170Z,8.20
2022-12-24T15:03:24.765Z,6.28
2022-12-24T15:05:53.370Z,8.93
2022-12-24T15:08:24.682Z,10.80
2022-12-24T15:10:53.180Z,11.80
2022-12-24T15:13:24.351Z,7.85
2022-12-24T15:15:53.369Z,9.05
2022-12-24T15:18:22.540Z,10.83
2022-12-24T15:20:52.250Z,9.88
2022-12-24T15:23:19.989Z,10.32
2022-12-24T15:25:48.960Z,8.55
2022-12-24T15:28:18.174Z,8.43
2022-12-24T15:30:45.579Z,10.07
2022-12-24T15:33:13.017Z,9.73
2022-12-24T15:35:52.740Z,8.07
2022-12-24T15:38:28.317Z,9.60
2022-12-24T15:40:57.016Z,7.70
2022-12-24T15:43:24.503Z,7.75
2022-12-24T15:45:51.921Z,9.10
2022-12-24T15:48:23.409Z,9.10
2022-12-24T15:50:51.295Z,8.70
2022-12-24T15:53:23.449Z,8.32
2022-12-24T15:56:05.342Z,8.98
2022-12-24T15:58:34.109Z,8.85
2022-12-24T16:01:03.073Z,9.60
2022-12-24T16:03:30.519Z,8.80
2022-12-24T16:06:01.741Z,8.95
2022-12-24T16:08:33.445Z,8.93
2022-12-24T16:11:10.857Z,6.47
2022-12-24T16:13:39.219Z,9.55
2022-12-24T16:16:08.118Z,9.10
2022-12-24T16:18:36.707Z,8.50
2022-12-24T16:21:04.530Z,12.07
2022-12-24T16:23:40.807Z,10.00
2022-12-24T16:26:09.495Z,8.43
2022-12-24T16:28:36.855Z,7.80
2022-12-24T16:31:04.350Z,8.55
2022-12-24T16:33:31.743Z,8.02
2022-12-24T16:35:59.138Z,7.05
2022-12-24T16:38:46.504Z,10.48
2022-12-24T16:41:15.316Z,11.77
2022-12-24T16:43:50.539Z,10.98
2022-12-24T16:46:18.029Z,10.32
2022-12-24T16:48:46.930Z,10.95
2022-12-24T16:51:14.297Z,12.05
2022-12-24T16:53:42.063Z,9.40
2022-12-24T16:56:09.598Z,8.95
2022-12-24T16:58:38.285Z,9.27
2022-12-24T17:01:09.985Z,9.02
2022-12-24T17:03:37.629Z,11.05
2022-12-24T17:06:07.003Z,9.75
2022-12-24T17:08:34.406Z,9.75
2022-12-24T17:11:01.794Z,9.10
2022-12-24T17:13:29.244Z,8.90
2022-12-24T17:15:57.967Z,10.75
2022-12-24T17:18:27.477Z,9.73
2022-12-24T17:20:59.553Z,8.85
2022-12-24T17:23:26.946Z,10.75
2022-12-24T17:25:54.324Z,10.75
2022-12-24T17:28:22.038Z,10.55
2022-12-24T17:30:49.435Z,10.52
2022-12-24T17:33:18.116Z,10.25
2022-12-24T17:35:48.191Z,11.75
2022-12-24T17:38:15.559Z,11.85
2022-12-24T17:40:42.944Z,8.70
2022-12-24T17:43:10.722Z,7.57
2022-12-24T17:45:41.643Z,9.15
2022-12-24T17:48:09.027Z,8.02
2022-12-24T17:50:40.363Z,10.05
2022-12-24T17:53:07.801Z,8.75
2022-12-24T17:55:35.161Z,9.93
2022-12-24T17:58:02.531Z,9.68
2022-12-24T18:00:33.145Z,10.18
2022-12-24T18:03:01.054Z,8.68
2022-12-24T18:05:28.479Z,8.57
2022-12-24T18:07:57.170Z,10.10
2022-12-24T18:10:24.842Z,12.20
2022-12-24T18:12:52.215Z,11.57
2022-12-24T18:15:20.296Z,10.32
2022-12-24T18:17:51.443Z,10.20
2022-12-24T18:20:18.822Z,8.00
2022-12-24T18:22:46.213Z,8.93
2022-12-24T18:25:14.889Z,8.98
2022-12-24T18:27:42.270Z,10.48
2022-12-24T18:30:10.659Z,9.68
2022-12-24T18:32:38.189Z,8.50
2022-12-24T18:35:06.155Z,8.27
2022-12-24T18:37:33.584Z,7.90
2022-12-24T18:40:00.992Z,8.32
2022-12-24T18:42:29.676Z,8.10
2022-12-24T18:44:57.042Z,11.63
2022-12-24T18:47:24.429Z,9.75
2022-12-24T18:49:51.810Z,8.70
2022-12-24T18:52:22.566Z,9.43
2022-12-24T18:54:50.718Z,8.65
2022-12-24T18:57:18.107Z,9.30
2022-12-24T18:59:46.848Z,9.98
2022-12-24T19:02:14.366Z,10.88
2022-12-24T19:04:41.800Z,10.05
2022-12-24T19:07:09.203Z,11.25
2022-12-24T19:09:36.570Z,10.55
2022-12-24T19:12:04.494Z,10.35
2022-12-24T19:14:31.866Z,9.07
2022-12-24T19:17:00.585Z,10.48
2022-12-24T19:19:27.951Z,10.85
2022-12-24T19:21:55.343Z,9.07
2022-12-24T19:24:22.759Z,10.20
2022-12-24T19:26:50.197Z,10.95
2022-12-24T19:29:17.602Z,8.13
2022-12-24T19:31:47.258Z,12.60
2022-12-24T19:34:16.061Z,10.82
2022-12-24T19:36:43.514Z,10.45
2022-12-24T19:39:10.901Z,11.23
2022-12-24T19:41:38.619Z,10.57
2022-12-24T19:44:06.235Z,10.98
2022-12-24T19:46:36.074Z,8.80
2022-12-24T19:49:05.913Z,13.00
2022-12-24T19:51:34.797Z,9.32
2022-12-24T19:54:02.682Z,11.57
2022-12-24T19:56:31.878Z,11.80
2022-12-24T19:58:59.435Z,10.37
2022-12-24T20:01:28.450Z,7.80
2022-12-24T20:03:56.092Z,12.18
2022-12-24T20:06:24.367Z,11.13
2022-12-24T20:08:53.141Z,10.82
2022-12-24T20:11:22.166Z,9.65
2022-12-24T20:13:49.596Z,9.65
2022-12-24T20:16:19.042Z,11.65
2022-12-24T20:18:51.636Z,9.73
2022-12-24T20:21:19.022Z,11.13
2022-12-24T20:23:46.453Z,12.57
2022-12-24T20:26:16.013Z,10.02
2022-12-24T20:28:43.758Z,12.32
2022-12-24T20:31:12.519Z,9.00
2022-12-24T20:33:40.051Z,9.73
2022-12-24T20:36:07.697Z,10.32
2022-12-24T20:38:35.107Z,9.10
2022-12-24T20:41:02.483Z,8.75
2022-12-24T20:43:36.136Z,8.70
2022-12-24T20:46:06.269Z,9.82
2022-12-24T20:48:33.827Z,9.82
2022-12-24T20:51:01.402Z,8.35
2022-12-24T20:53:29.139Z,9.25
2022-12-24T20:55:56.526Z,10.27
2022-12-24T20:58:23.935Z,10.48
2022-12-24T21:00:52.647Z,8.63
2022-12-24T21:03:20.190Z,7.93
2022-12-24T21:05:47.733Z,12.27
2022-12-24T21:08:15.195Z,8.15
2022-12-24T21:10:42.596Z,10.88
2022-12-24T21:13:09.066Z,9.70
2022-12-24T21:15:38.713Z,8.40
2022-12-24T21:18:11.494Z,11.45
2022-12-24T21:20:38.962Z,9.02
2022-12-24T21:23:06.371Z,11.98
2022-12-24T21:25:33.963Z,7.85
2022-12-24T21:28:01.343Z,7.82
2022-12-24T21:30:28.806Z,10.85
2022-12-24T21:32:56.265Z,8.23
2022-12-24T21:35:24.986Z,7.90
2022-12-24T21:37:52.357Z,10.30
2022-12-24T21:40:19.767Z,8.95
2022-12-24T21:42:47.158Z,9.45
2022-12-24T21:45:14.528Z,11.88
2022-12-24T21:47:44.544Z,8.20
2022-12-24T21:50:31.734Z,8.82
2022-12-24T21:53:14.897Z,8.70
2022-12-24T21:55:42.263Z,10.65
2022-12-24T21:58:08.707Z,8.80
2022-12-24T22:00:36.090Z,8.48
2022-12-24T22:03:03.606Z,9.15
2022-12-24T22:05:33.210Z,9.55
2022-12-24T22:08:19.809Z,7.97
2022-12-24T22:11:04.496Z,9.05
2022-12-24T22:13:31.980Z,8.75
2022-12-24T22:15:59.424Z,9.20
2022-12-24T22:18:27.034Z,7.47
2022-12-24T22:20:54.871Z,9.23
2022-12-24T22:23:23.603Z,8.57
2022-12-24T22:25:51.060Z,8.55
2022-12-24T22:28:19.445Z,8.55
2022-12-24T22:30:46.892Z,7.28
2022-12-24T22:33:14.373Z,8.13
2022-12-24T22:35:41.881Z,8.45
2022-12-24T22:38:09.490Z,9.13
2022-12-24T22:40:39.690Z,8.75
2022-12-24T22:45:34.298Z,7.90
2022-12-24T22:48:01.674Z,7.57
2022-12-24T22:50:29.048Z,10.50
2022-12-24T22:52:56.440Z,7.53
2022-12-24T22:55:23.811Z,6.60
2022-12-24T22:57:52.506Z,6.63
2022-12-24T23:00:37.522Z,7.28
2022-12-24T23:03:05.432Z,9.98
2022-12-24T23:05:32.993Z,7.65
2022-12-24T23:08:00.470Z,7.97
2022-12-24T23:10:27.848Z,7.68
2022-12-24T23:13:15.381Z,7.70
2022-12-24T23:15:43.094Z,5.85
2022-12-24T23:18:10.548Z,9.57
2022-12-24T23:20:38.754Z,10.30
2022-12-24T23:23:06.135Z,9.90
2022-12-24T23:25:33.627Z,8.25
2022-12-24T23:28:02.307Z,7.28
2022-12-24T23:30:29.690Z,9.52
2022-12-24T23:32:57.083Z,7.45
2022-12-24T23:35:24.460Z,7.68
2022-12-24T23:37:51.867Z,7.88
2022-12-24T23:40:19.481Z,8.07
2022-12-24T23:42:46.871Z,6.22
2022-12-24T23:45:15.652Z,8.82
2022-12-24T23:47:43.165Z,6.75
2022-12-24T23:50:11.170Z,7.25
2022-12-24T23:52:38.550Z,9.75
2022-12-24T23:55:06.852Z,9.18
2022-12-24T23:57:34.238Z,7.13
